ルクソール の空港の天気 - METARとTAF

ルクソール国際空港 ( HELX / LXR ) - エジプト ルクソール
飛行場実況気象(Metar)
観測時間06/25 14:00 EET (06/25 12:00 UTC)
風向・風速北 4m/s
視程10km以上
天気現象
なし
気温39℃
湿度20%
気圧1005hPa
METARHELX 251200Z 35008KT CAVOK 39/12 Q1005 NOSIG
過去の天気等 Google飛行場航空写真 Wunderground天気予報

過去48時間のMETAR

飛行場予報(TAF)
発表時間: 6/25 13:00 EET (6/25 11:00 UTC)
予報対象時間: 25日14時 EET ~ 26日20時 EET
風向・風速北西 4m/s
視程10km以上
なし
TAF HELX 251100Z 2512/2618 32008KT CAVOK